Terminal Aerodrome Forecast
Issued by NWS

Home | Current Version | Previous Version | Text Only | Print | Product List | Glossary On
Versions: 1 2 3 4 5 6 7 8 9 10 11 12 13
373
FTUS43 KEAX 011120
TAFMKC
TAF
KMKC 011120Z 0112/0212 34004KT P6SM OVC040
     FM020400 00000KT P6SM SCT150=

USA.gov is the U.S. government's official web portal to all federal, state and local government web resources and services.